sensor_id;sensor_type;location;lat;lon;timestamp;temperature;humidity
18083;DHT22;9168;51.194;6.840;2023-03-22T00:00:24;11.60;99.90
18083;DHT22;9168;51.194;6.840;2023-03-22T00:02:52;11.60;99.90
18083;DHT22;9168;51.194;6.840;2023-03-22T00:05:19;11.50;99.90
18083;DHT22;9168;51.194;6.840;2023-03-22T00:07:45;11.60;99.90
18083;DHT22;9168;51.194;6.840;2023-03-22T00:10:14;11.50;99.90
18083;DHT22;9168;51.194;6.840;2023-03-22T00:12:42;11.50;99.90
18083;DHT22;9168;51.194;6.840;2023-03-22T00:15:10;11.50;99.90
18083;DHT22;9168;51.194;6.840;2023-03-22T00:17:37;11.40;99.90
18083;DHT22;9168;51.194;6.840;2023-03-22T00:20:07;11.40;99.90
18083;DHT22;9168;51.194;6.840;2023-03-22T00:22:34;11.40;99.90
18083;DHT22;9168;51.194;6.840;2023-03-22T00:25:01;11.40;99.90
18083;DHT22;9168;51.194;6.840;2023-03-22T00:27:28;11.40;99.90
18083;DHT22;9168;51.194;6.840;2023-03-22T00:29:55;11.40;99.90
18083;DHT22;9168;51.194;6.840;2023-03-22T00:32:23;11.40;99.90
18083;DHT22;9168;51.194;6.840;2023-03-22T00:34:51;11.40;99.90
18083;DHT22;9168;51.194;6.840;2023-03-22T00:37:18;11.40;99.90
18083;DHT22;9168;51.194;6.840;2023-03-22T00:39:44;11.40;99.90
18083;DHT22;9168;51.194;6.840;2023-03-22T00:42:11;11.40;99.90
18083;DHT22;9168;51.194;6.840;2023-03-22T00:44:38;11.40;99.90
18083;DHT22;9168;51.194;6.840;2023-03-22T00:47:05;11.40;99.90
18083;DHT22;9168;51.194;6.840;2023-03-22T00:49:34;11.40;99.90
18083;DHT22;9168;51.194;6.840;2023-03-22T00:52:02;11.30;99.90
18083;DHT22;9168;51.194;6.840;2023-03-22T00:54:29;11.30;99.90
18083;DHT22;9168;51.194;6.840;2023-03-22T00:56:55;11.30;99.90
18083;DHT22;9168;51.194;6.840;2023-03-22T00:59:22;11.30;99.90
18083;DHT22;9168;51.194;6.840;2023-03-22T01:01:49;11.20;99.90
18083;DHT22;9168;51.194;6.840;2023-03-22T01:04:16;11.20;99.90
18083;DHT22;9168;51.194;6.840;2023-03-22T01:06:52;11.20;99.90
18083;DHT22;9168;51.194;6.840;2023-03-22T01:09:23;11.10;99.90
18083;DHT22;9168;51.194;6.840;2023-03-22T01:11:52;11.10;99.90
18083;DHT22;9168;51.194;6.840;2023-03-22T01:14:20;11.00;99.90
18083;DHT22;9168;51.194;6.840;2023-03-22T01:16:47;10.90;99.90
18083;DHT22;9168;51.194;6.840;2023-03-22T01:19:15;10.90;99.90
18083;DHT22;9168;51.194;6.840;2023-03-22T01:21:41;10.90;99.90
18083;DHT22;9168;51.194;6.840;2023-03-22T01:24:10;10.90;99.90
18083;DHT22;9168;51.194;6.840;2023-03-22T01:26:36;10.90;99.90
18083;DHT22;9168;51.194;6.840;2023-03-22T01:29:04;10.90;99.90
18083;DHT22;9168;51.194;6.840;2023-03-22T01:31:31;10.90;99.90
18083;DHT22;9168;51.194;6.840;2023-03-22T01:33:58;10.90;99.90
18083;DHT22;9168;51.194;6.840;2023-03-22T01:36:25;10.80;99.90
18083;DHT22;9168;51.194;6.840;2023-03-22T01:38:52;10.80;99.90
18083;DHT22;9168;51.194;6.840;2023-03-22T01:41:20;10.70;99.90
18083;DHT22;9168;51.194;6.840;2023-03-22T01:44:09;10.60;99.90
18083;DHT22;9168;51.194;6.840;2023-03-22T01:46:36;10.60;99.90
18083;DHT22;9168;51.194;6.840;2023-03-22T01:49:04;10.60;99.90
18083;DHT22;9168;51.194;6.840;2023-03-22T01:51:32;10.60;99.90
18083;DHT22;9168;51.194;6.840;2023-03-22T01:54:02;10.50;99.90
18083;DHT22;9168;51.194;6.840;2023-03-22T01:56:35;10.50;99.90
18083;DHT22;9168;51.194;6.840;2023-03-22T01:59:02;10.50;99.90
18083;DHT22;9168;51.194;6.840;2023-03-22T02:01:30;10.50;99.90
18083;DHT22;9168;51.194;6.840;2023-03-22T02:04:01;10.40;99.90
18083;DHT22;9168;51.194;6.840;2023-03-22T02:06:32;10.40;99.90
18083;DHT22;9168;51.194;6.840;2023-03-22T02:09:03;10.30;99.90
18083;DHT22;9168;51.194;6.840;2023-03-22T02:11:34;10.30;99.90
18083;DHT22;9168;51.194;6.840;2023-03-22T02:14:24;10.20;99.90
18083;DHT22;9168;51.194;6.840;2023-03-22T02:17:08;10.20;99.90
18083;DHT22;9168;51.194;6.840;2023-03-22T02:25:51;10.20;99.90
18083;DHT22;9168;51.194;6.840;2023-03-22T02:28:41;10.20;99.90
18083;DHT22;9168;51.194;6.840;2023-03-22T02:37:41;10.30;99.90
18083;DHT22;9168;51.194;6.840;2023-03-22T02:40:16;10.20;99.90
18083;DHT22;9168;51.194;6.840;2023-03-22T02:42:55;10.20;99.90
18083;DHT22;9168;51.194;6.840;2023-03-22T02:45:28;10.20;99.90
18083;DHT22;9168;51.194;6.840;2023-03-22T02:48:04;10.20;99.90
18083;DHT22;9168;51.194;6.840;2023-03-22T02:50:37;10.10;99.90
18083;DHT22;9168;51.194;6.840;2023-03-22T02:53:11;10.00;99.90
18083;DHT22;9168;51.194;6.840;2023-03-22T02:55:43;10.00;99.90
18083;DHT22;9168;51.194;6.840;2023-03-22T02:58:15;10.00;99.90
18083;DHT22;9168;51.194;6.840;2023-03-22T03:00:44;9.90;99.90
18083;DHT22;9168;51.194;6.840;2023-03-22T03:03:15;9.90;99.90
18083;DHT22;9168;51.194;6.840;2023-03-22T03:05:45;9.80;99.90
18083;DHT22;9168;51.194;6.840;2023-03-22T03:08:16;9.80;99.90
18083;DHT22;9168;51.194;6.840;2023-03-22T03:10:45;9.80;99.90
18083;DHT22;9168;51.194;6.840;2023-03-22T03:13:14;9.80;99.90
18083;DHT22;9168;51.194;6.840;2023-03-22T03:15:43;9.80;99.90
18083;DHT22;9168;51.194;6.840;2023-03-22T03:18:20;9.80;99.90
18083;DHT22;9168;51.194;6.840;2023-03-22T03:20:56;9.90;99.90
18083;DHT22;9168;51.194;6.840;2023-03-22T03:23:33;9.90;99.90
18083;DHT22;9168;51.194;6.840;2023-03-22T03:26:09;9.90;99.90
18083;DHT22;9168;51.194;6.840;2023-03-22T03:28:41;9.90;99.90
18083;DHT22;9168;51.194;6.840;2023-03-22T03:31:19;9.90;99.90
18083;DHT22;9168;51.194;6.840;2023-03-22T03:33:58;9.90;99.90
18083;DHT22;9168;51.194;6.840;2023-03-22T03:36:29;9.90;99.90
18083;DHT22;9168;51.194;6.840;2023-03-22T03:38:57;9.90;99.90
18083;DHT22;9168;51.194;6.840;2023-03-22T03:41:28;9.90;99.90
18083;DHT22;9168;51.194;6.840;2023-03-22T03:43:56;9.90;99.90
18083;DHT22;9168;51.194;6.840;2023-03-22T03:46:24;9.90;99.90
18083;DHT22;9168;51.194;6.840;2023-03-22T03:48:51;9.80;99.90
18083;DHT22;9168;51.194;6.840;2023-03-22T03:51:19;9.80;99.90
18083;DHT22;9168;51.194;6.840;2023-03-22T03:53:46;9.80;99.90
18083;DHT22;9168;51.194;6.840;2023-03-22T03:56:12;9.80;99.90
18083;DHT22;9168;51.194;6.840;2023-03-22T03:58:41;9.80;99.90
18083;DHT22;9168;51.194;6.840;2023-03-22T04:01:07;9.80;99.90
18083;DHT22;9168;51.194;6.840;2023-03-22T04:03:34;9.80;99.90
18083;DHT22;9168;51.194;6.840;2023-03-22T04:06:02;9.80;99.90
18083;DHT22;9168;51.194;6.840;2023-03-22T04:08:29;9.90;99.90
18083;DHT22;9168;51.194;6.840;2023-03-22T04:10:56;9.90;99.90
18083;DHT22;9168;51.194;6.840;2023-03-22T04:13:23;9.90;99.90
18083;DHT22;9168;51.194;6.840;2023-03-22T04:15:54;9.90;99.90
18083;DHT22;9168;51.194;6.840;2023-03-22T04:18:22;10.00;99.90
18083;DHT22;9168;51.194;6.840;2023-03-22T04:20:49;10.00;99.90
18083;DHT22;9168;51.194;6.840;2023-03-22T04:23:18;10.00;99.90
18083;DHT22;9168;51.194;6.840;2023-03-22T04:25:47;10.00;99.90
18083;DHT22;9168;51.194;6.840;2023-03-22T04:28:15;10.00;99.90
18083;DHT22;9168;51.194;6.840;2023-03-22T04:30:42;10.00;99.90
18083;DHT22;9168;51.194;6.840;2023-03-22T04:33:11;10.10;99.90
18083;DHT22;9168;51.194;6.840;2023-03-22T04:35:39;10.10;99.90
18083;DHT22;9168;51.194;6.840;2023-03-22T04:38:06;10.20;99.90
18083;DHT22;9168;51.194;6.840;2023-03-22T04:40:34;10.20;99.90
18083;DHT22;9168;51.194;6.840;2023-03-22T04:43:03;10.20;99.90
18083;DHT22;9168;51.194;6.840;2023-03-22T04:45:30;10.20;99.90
18083;DHT22;9168;51.194;6.840;2023-03-22T04:47:59;10.20;99.90
18083;DHT22;9168;51.194;6.840;2023-03-22T04:50:27;10.20;99.90
18083;DHT22;9168;51.194;6.840;2023-03-22T04:52:54;10.20;99.90
18083;DHT22;9168;51.194;6.840;2023-03-22T04:55:22;10.20;99.90
18083;DHT22;9168;51.194;6.840;2023-03-22T04:57:52;10.20;99.90
18083;DHT22;9168;51.194;6.840;2023-03-22T05:00:19;10.20;99.90
18083;DHT22;9168;51.194;6.840;2023-03-22T05:02:47;10.30;99.90
18083;DHT22;9168;51.194;6.840;2023-03-22T05:05:14;10.30;99.90
18083;DHT22;9168;51.194;6.840;2023-03-22T05:07:42;10.30;99.90
18083;DHT22;9168;51.194;6.840;2023-03-22T05:10:09;10.40;99.90
18083;DHT22;9168;51.194;6.840;2023-03-22T05:12:36;10.40;99.90
18083;DHT22;9168;51.194;6.840;2023-03-22T05:15:05;10.50;99.90
18083;DHT22;9168;51.194;6.840;2023-03-22T05:17:32;10.50;99.90
18083;DHT22;9168;51.194;6.840;2023-03-22T05:19:59;10.60;99.90
18083;DHT22;9168;51.194;6.840;2023-03-22T05:22:33;10.50;99.90
18083;DHT22;9168;51.194;6.840;2023-03-22T05:25:04;10.50;99.90
18083;DHT22;9168;51.194;6.840;2023-03-22T05:27:32;10.50;99.90
18083;DHT22;9168;51.194;6.840;2023-03-22T05:29:59;10.40;99.90
18083;DHT22;9168;51.194;6.840;2023-03-22T05:32:26;10.40;99.90
18083;DHT22;9168;51.194;6.840;2023-03-22T05:34:54;10.40;99.90
18083;DHT22;9168;51.194;6.840;2023-03-22T05:37:20;10.40;99.90
18083;DHT22;9168;51.194;6.840;2023-03-22T05:39:47;10.40;99.90
18083;DHT22;9168;51.194;6.840;2023-03-22T05:42:16;10.40;99.90
18083;DHT22;9168;51.194;6.840;2023-03-22T05:44:43;10.40;99.90
18083;DHT22;9168;51.194;6.840;2023-03-22T05:47:09;10.50;99.90
18083;DHT22;9168;51.194;6.840;2023-03-22T05:49:36;10.50;99.90
18083;DHT22;9168;51.194;6.840;2023-03-22T05:52:03;10.50;99.90
18083;DHT22;9168;51.194;6.840;2023-03-22T05:54:31;10.50;99.90
18083;DHT22;9168;51.194;6.840;2023-03-22T05:56:58;10.60;99.90
18083;DHT22;9168;51.194;6.840;2023-03-22T05:59:27;10.60;99.90
18083;DHT22;9168;51.194;6.840;2023-03-22T06:01:53;10.60;99.90
18083;DHT22;9168;51.194;6.840;2023-03-22T06:04:21;10.60;99.90
18083;DHT22;9168;51.194;6.840;2023-03-22T06:06:47;10.70;99.90
18083;DHT22;9168;51.194;6.840;2023-03-22T06:09:14;10.70;99.90
18083;DHT22;9168;51.194;6.840;2023-03-22T06:11:41;10.70;99.90
18083;DHT22;9168;51.194;6.840;2023-03-22T06:14:08;10.80;99.90
18083;DHT22;9168;51.194;6.840;2023-03-22T06:16:37;10.80;99.90
18083;DHT22;9168;51.194;6.840;2023-03-22T06:19:03;10.80;99.90
18083;DHT22;9168;51.194;6.840;2023-03-22T06:21:30;10.80;99.90
18083;DHT22;9168;51.194;6.840;2023-03-22T06:23:57;10.80;99.90
18083;DHT22;9168;51.194;6.840;2023-03-22T06:31:36;10.80;99.90
18083;DHT22;9168;51.194;6.840;2023-03-22T06:34:03;10.70;99.90
18083;DHT22;9168;51.194;6.840;2023-03-22T06:36:30;10.80;99.90
18083;DHT22;9168;51.194;6.840;2023-03-22T06:38:58;10.80;99.90
18083;DHT22;9168;51.194;6.840;2023-03-22T06:41:27;10.80;99.90
18083;DHT22;9168;51.194;6.840;2023-03-22T06:43:54;10.80;99.90
18083;DHT22;9168;51.194;6.840;2023-03-22T06:46:21;10.80;99.90
18083;DHT22;9168;51.194;6.840;2023-03-22T06:48:49;10.80;99.90
18083;DHT22;9168;51.194;6.840;2023-03-22T06:51:16;10.80;99.90
18083;DHT22;9168;51.194;6.840;2023-03-22T06:53:43;10.80;99.90
18083;DHT22;9168;51.194;6.840;2023-03-22T06:56:10;10.80;99.90
18083;DHT22;9168;51.194;6.840;2023-03-22T06:58:37;10.80;99.90
18083;DHT22;9168;51.194;6.840;2023-03-22T07:01:04;10.80;99.90
18083;DHT22;9168;51.194;6.840;2023-03-22T07:03:31;10.80;99.90
18083;DHT22;9168;51.194;6.840;2023-03-22T07:06:04;10.80;99.90
18083;DHT22;9168;51.194;6.840;2023-03-22T07:08:31;10.90;99.90
18083;DHT22;9168;51.194;6.840;2023-03-22T07:10:58;10.90;99.90
18083;DHT22;9168;51.194;6.840;2023-03-22T07:13:25;11.00;99.90
18083;DHT22;9168;51.194;6.840;2023-03-22T07:15:54;11.20;99.90
18083;DHT22;9168;51.194;6.840;2023-03-22T07:18:22;11.20;99.90
18083;DHT22;9168;51.194;6.840;2023-03-22T07:20:49;11.30;99.90
18083;DHT22;9168;51.194;6.840;2023-03-22T07:23:17;11.40;99.90
18083;DHT22;9168;51.194;6.840;2023-03-22T07:25:45;11.50;99.90
18083;DHT22;9168;51.194;6.840;2023-03-22T07:28:12;11.60;99.90
18083;DHT22;9168;51.194;6.840;2023-03-22T07:30:39;11.70;99.90
18083;DHT22;9168;51.194;6.840;2023-03-22T07:33:07;11.80;99.90
18083;DHT22;9168;51.194;6.840;2023-03-22T07:35:36;11.90;99.90
18083;DHT22;9168;51.194;6.840;2023-03-22T07:38:03;12.00;99.90
18083;DHT22;9168;51.194;6.840;2023-03-22T07:40:32;12.10;99.90
18083;DHT22;9168;51.194;6.840;2023-03-22T07:42:59;12.20;99.90
18083;DHT22;9168;51.194;6.840;2023-03-22T07:45:26;12.20;99.90
18083;DHT22;9168;51.194;6.840;2023-03-22T07:47:52;12.20;99.90
18083;DHT22;9168;51.194;6.840;2023-03-22T07:50:19;12.20;99.90
18083;DHT22;9168;51.194;6.840;2023-03-22T07:52:46;12.30;99.90
18083;DHT22;9168;51.194;6.840;2023-03-22T07:55:13;12.30;99.90
18083;DHT22;9168;51.194;6.840;2023-03-22T07:57:41;12.20;99.90
18083;DHT22;9168;51.194;6.840;2023-03-22T08:00:09;12.20;99.90
18083;DHT22;9168;51.194;6.840;2023-03-22T08:02:36;12.10;99.90
18083;DHT22;9168;51.194;6.840;2023-03-22T08:05:05;12.20;99.90
18083;DHT22;9168;51.194;6.840;2023-03-22T08:07:32;12.20;99.90
18083;DHT22;9168;51.194;6.840;2023-03-22T08:09:59;12.20;99.90
18083;DHT22;9168;51.194;6.840;2023-03-22T08:12:25;12.20;99.90
18083;DHT22;9168;51.194;6.840;2023-03-22T08:14:54;12.20;99.90
18083;DHT22;9168;51.194;6.840;2023-03-22T08:17:21;12.20;99.90
18083;DHT22;9168;51.194;6.840;2023-03-22T08:19:50;12.10;99.90
18083;DHT22;9168;51.194;6.840;2023-03-22T08:22:19;12.10;99.90
18083;DHT22;9168;51.194;6.840;2023-03-22T08:24:49;12.10;99.90
18083;DHT22;9168;51.194;6.840;2023-03-22T08:27:16;12.20;99.90
18083;DHT22;9168;51.194;6.840;2023-03-22T08:29:43;12.20;99.90
18083;DHT22;9168;51.194;6.840;2023-03-22T08:32:12;12.20;99.90
18083;DHT22;9168;51.194;6.840;2023-03-22T08:34:40;12.30;99.90
18083;DHT22;9168;51.194;6.840;2023-03-22T08:37:08;12.30;99.90
18083;DHT22;9168;51.194;6.840;2023-03-22T08:39:35;12.30;99.90
18083;DHT22;9168;51.194;6.840;2023-03-22T08:42:02;12.30;99.90
18083;DHT22;9168;51.194;6.840;2023-03-22T08:44:30;12.30;99.90
18083;DHT22;9168;51.194;6.840;2023-03-22T08:46:57;12.40;99.90
18083;DHT22;9168;51.194;6.840;2023-03-22T08:49:25;12.40;99.90
18083;DHT22;9168;51.194;6.840;2023-03-22T08:51:53;12.50;99.90
18083;DHT22;9168;51.194;6.840;2023-03-22T08:54:22;12.40;99.90
18083;DHT22;9168;51.194;6.840;2023-03-22T08:56:49;12.40;99.90
18083;DHT22;9168;51.194;6.840;2023-03-22T08:59:16;12.50;99.90
18083;DHT22;9168;51.194;6.840;2023-03-22T09:01:43;12.50;99.90
18083;DHT22;9168;51.194;6.840;2023-03-22T09:04:10;12.50;99.90
18083;DHT22;9168;51.194;6.840;2023-03-22T09:06:38;12.50;99.90
18083;DHT22;9168;51.194;6.840;2023-03-22T09:09:08;12.60;99.90
18083;DHT22;9168;51.194;6.840;2023-03-22T09:11:35;12.60;99.90
18083;DHT22;9168;51.194;6.840;2023-03-22T09:14:04;12.60;99.90
18083;DHT22;9168;51.194;6.840;2023-03-22T09:16:31;12.70;99.90
18083;DHT22;9168;51.194;6.840;2023-03-22T09:18:58;12.70;99.90
18083;DHT22;9168;51.194;6.840;2023-03-22T09:21:26;12.80;99.90
18083;DHT22;9168;51.194;6.840;2023-03-22T09:23:55;12.90;99.90
18083;DHT22;9168;51.194;6.840;2023-03-22T09:26:22;13.00;99.90
18083;DHT22;9168;51.194;6.840;2023-03-22T09:28:50;13.00;99.90
18083;DHT22;9168;51.194;6.840;2023-03-22T09:31:17;13.10;99.90
18083;DHT22;9168;51.194;6.840;2023-03-22T09:33:43;13.20;99.90
18083;DHT22;9168;51.194;6.840;2023-03-22T09:36:10;13.40;99.90
18083;DHT22;9168;51.194;6.840;2023-03-22T09:38:37;13.40;99.90
18083;DHT22;9168;51.194;6.840;2023-03-22T09:41:11;13.50;99.90
18083;DHT22;9168;51.194;6.840;2023-03-22T09:43:42;13.50;99.90
18083;DHT22;9168;51.194;6.840;2023-03-22T09:46:13;13.40;99.90
18083;DHT22;9168;51.194;6.840;2023-03-22T09:48:42;13.30;99.90
18083;DHT22;9168;51.194;6.840;2023-03-22T09:54:02;13.30;99.90
18083;DHT22;9168;51.194;6.840;2023-03-22T09:56:31;13.40;99.90
18083;DHT22;9168;51.194;6.840;2023-03-22T09:59:05;13.40;99.90
18083;DHT22;9168;51.194;6.840;2023-03-22T10:01:40;13.40;99.90
18083;DHT22;9168;51.194;6.840;2023-03-22T10:04:28;13.50;99.90
18083;DHT22;9168;51.194;6.840;2023-03-22T10:07:05;13.70;99.90
18083;DHT22;9168;51.194;6.840;2023-03-22T10:09:43;13.90;99.90
18083;DHT22;9168;51.194;6.840;2023-03-22T10:12:23;14.00;99.90
18083;DHT22;9168;51.194;6.840;2023-03-22T10:14:58;14.20;99.90
18083;DHT22;9168;51.194;6.840;2023-03-22T10:17:28;14.30;99.90
18083;DHT22;9168;51.194;6.840;2023-03-22T10:19:59;14.30;99.90
18083;DHT22;9168;51.194;6.840;2023-03-22T10:22:32;14.30;99.90
18083;DHT22;9168;51.194;6.840;2023-03-22T10:25:00;14.20;99.90
18083;DHT22;9168;51.194;6.840;2023-03-22T10:27:30;14.20;99.90
18083;DHT22;9168;51.194;6.840;2023-03-22T10:30:02;14.20;99.90
18083;DHT22;9168;51.194;6.840;2023-03-22T10:32:35;14.00;99.90
18083;DHT22;9168;51.194;6.840;2023-03-22T10:35:05;13.90;99.90
18083;DHT22;9168;51.194;6.840;2023-03-22T10:37:34;13.90;99.90
18083;DHT22;9168;51.194;6.840;2023-03-22T10:40:03;14.00;99.90
18083;DHT22;9168;51.194;6.840;2023-03-22T10:42:34;14.00;99.90
18083;DHT22;9168;51.194;6.840;2023-03-22T10:45:04;13.90;99.90
18083;DHT22;9168;51.194;6.840;2023-03-22T10:47:34;13.80;99.90
18083;DHT22;9168;51.194;6.840;2023-03-22T10:50:04;13.80;99.90
18083;DHT22;9168;51.194;6.840;2023-03-22T10:52:40;13.70;99.90
18083;DHT22;9168;51.194;6.840;2023-03-22T10:55:10;13.70;99.90
18083;DHT22;9168;51.194;6.840;2023-03-22T10:57:38;13.70;99.90
18083;DHT22;9168;51.194;6.840;2023-03-22T11:00:08;13.70;99.90
18083;DHT22;9168;51.194;6.840;2023-03-22T11:02:45;13.70;99.90
18083;DHT22;9168;51.194;6.840;2023-03-22T11:05:20;13.60;99.90
18083;DHT22;9168;51.194;6.840;2023-03-22T11:07:48;13.60;99.90
18083;DHT22;9168;51.194;6.840;2023-03-22T11:10:25;13.60;99.90
18083;DHT22;9168;51.194;6.840;2023-03-22T11:13:09;13.50;99.90
18083;DHT22;9168;51.194;6.840;2023-03-22T11:15:39;13.50;99.90
18083;DHT22;9168;51.194;6.840;2023-03-22T11:18:10;13.50;99.90
18083;DHT22;9168;51.194;6.840;2023-03-22T11:20:40;13.40;99.90
18083;DHT22;9168;51.194;6.840;2023-03-22T11:23:10;13.50;99.90
18083;DHT22;9168;51.194;6.840;2023-03-22T11:25:44;13.40;99.90
18083;DHT22;9168;51.194;6.840;2023-03-22T11:28:18;13.40;99.90
18083;DHT22;9168;51.194;6.840;2023-03-22T11:31:01;13.40;99.90
18083;DHT22;9168;51.194;6.840;2023-03-22T11:33:29;13.40;99.90
18083;DHT22;9168;51.194;6.840;2023-03-22T11:35:57;13.30;99.90
18083;DHT22;9168;51.194;6.840;2023-03-22T11:38:27;13.30;99.90
18083;DHT22;9168;51.194;6.840;2023-03-22T11:40:57;13.20;99.90
18083;DHT22;9168;51.194;6.840;2023-03-22T11:43:31;13.20;99.90
18083;DHT22;9168;51.194;6.840;2023-03-22T11:45:59;13.20;99.90
18083;DHT22;9168;51.194;6.840;2023-03-22T11:48:28;13.20;99.90
18083;DHT22;9168;51.194;6.840;2023-03-22T11:51:02;13.10;99.90
18083;DHT22;9168;51.194;6.840;2023-03-22T11:53:32;13.20;99.90
18083;DHT22;9168;51.194;6.840;2023-03-22T11:56:02;13.20;99.90
18083;DHT22;9168;51.194;6.840;2023-03-22T11:58:52;13.30;99.90
18083;DHT22;9168;51.194;6.840;2023-03-22T12:01:26;13.30;99.90
18083;DHT22;9168;51.194;6.840;2023-03-22T12:03:55;13.40;99.90
18083;DHT22;9168;51.194;6.840;2023-03-22T12:06:25;13.40;99.90
18083;DHT22;9168;51.194;6.840;2023-03-22T12:08:56;13.40;99.90
18083;DHT22;9168;51.194;6.840;2023-03-22T12:11:27;13.40;99.90
18083;DHT22;9168;51.194;6.840;2023-03-22T12:13:58;13.40;99.90
18083;DHT22;9168;51.194;6.840;2023-03-22T12:16:29;13.40;99.90
18083;DHT22;9168;51.194;6.840;2023-03-22T12:19:05;13.30;99.90
18083;DHT22;9168;51.194;6.840;2023-03-22T12:21:39;13.30;99.90
18083;DHT22;9168;51.194;6.840;2023-03-22T12:24:16;13.20;99.90
18083;DHT22;9168;51.194;6.840;2023-03-22T12:26:44;13.20;99.90
18083;DHT22;9168;51.194;6.840;2023-03-22T12:29:15;13.20;99.90
18083;DHT22;9168;51.194;6.840;2023-03-22T12:31:45;13.20;99.90
18083;DHT22;9168;51.194;6.840;2023-03-22T12:34:16;13.20;99.90
18083;DHT22;9168;51.194;6.840;2023-03-22T12:36:46;13.20;99.90
18083;DHT22;9168;51.194;6.840;2023-03-22T12:39:21;13.20;99.90
18083;DHT22;9168;51.194;6.840;2023-03-22T12:41:49;13.20;99.90
18083;DHT22;9168;51.194;6.840;2023-03-22T12:44:23;13.20;99.90
18083;DHT22;9168;51.194;6.840;2023-03-22T12:46:55;13.10;99.90
18083;DHT22;9168;51.194;6.840;2023-03-22T12:49:26;13.10;99.90
18083;DHT22;9168;51.194;6.840;2023-03-22T12:52:02;13.10;99.90
18083;DHT22;9168;51.194;6.840;2023-03-22T12:54:37;13.10;99.90
18083;DHT22;9168;51.194;6.840;2023-03-22T12:57:04;13.10;99.90
18083;DHT22;9168;51.194;6.840;2023-03-22T12:59:33;13.10;99.90
18083;DHT22;9168;51.194;6.840;2023-03-22T13:02:10;13.00;99.90
18083;DHT22;9168;51.194;6.840;2023-03-22T13:04:49;12.90;99.90
18083;DHT22;9168;51.194;6.840;2023-03-22T13:07:37;13.00;99.90
18083;DHT22;9168;51.194;6.840;2023-03-22T13:10:38;12.90;99.90
18083;DHT22;9168;51.194;6.840;2023-03-22T13:13:13;12.90;99.90
18083;DHT22;9168;51.194;6.840;2023-03-22T13:15:56;13.00;99.90
18083;DHT22;9168;51.194;6.840;2023-03-22T13:18:57;13.00;99.90
18083;DHT22;9168;51.194;6.840;2023-03-22T13:21:26;13.00;99.90
18083;DHT22;9168;51.194;6.840;2023-03-22T13:23:56;12.90;99.90
18083;DHT22;9168;51.194;6.840;2023-03-22T13:26:33;12.90;99.90
18083;DHT22;9168;51.194;6.840;2023-03-22T13:29:08;12.90;99.90
18083;DHT22;9168;51.194;6.840;2023-03-22T13:31:41;12.90;99.90
18083;DHT22;9168;51.194;6.840;2023-03-22T13:34:14;12.90;99.90
18083;DHT22;9168;51.194;6.840;2023-03-22T13:36:49;12.90;99.90
18083;DHT22;9168;51.194;6.840;2023-03-22T13:39:17;12.80;99.90
18083;DHT22;9168;51.194;6.840;2023-03-22T13:41:48;12.90;99.90
18083;DHT22;9168;51.194;6.840;2023-03-22T13:44:24;12.90;99.90
18083;DHT22;9168;51.194;6.840;2023-03-22T13:46:57;12.90;99.90
18083;DHT22;9168;51.194;6.840;2023-03-22T13:49:43;12.90;99.90
18083;DHT22;9168;51.194;6.840;2023-03-22T13:52:23;13.00;99.90
18083;DHT22;9168;51.194;6.840;2023-03-22T13:54:52;13.00;99.90
18083;DHT22;9168;51.194;6.840;2023-03-22T13:57:37;13.00;99.90
18083;DHT22;9168;51.194;6.840;2023-03-22T14:00:15;13.00;99.90
18083;DHT22;9168;51.194;6.840;2023-03-22T14:02:45;13.00;99.90
18083;DHT22;9168;51.194;6.840;2023-03-22T14:05:15;13.00;99.90
18083;DHT22;9168;51.194;6.840;2023-03-22T14:07:45;13.00;99.90
18083;DHT22;9168;51.194;6.840;2023-03-22T14:10:16;13.00;99.90
18083;DHT22;9168;51.194;6.840;2023-03-22T14:12:48;13.10;99.90
18083;DHT22;9168;51.194;6.840;2023-03-22T14:15:19;13.10;99.90
18083;DHT22;9168;51.194;6.840;2023-03-22T14:17:52;13.10;99.90
18083;DHT22;9168;51.194;6.840;2023-03-22T14:20:23;13.20;99.90
18083;DHT22;9168;51.194;6.840;2023-03-22T14:22:54;13.20;99.90
18083;DHT22;9168;51.194;6.840;2023-03-22T14:25:26;13.10;99.90
18083;DHT22;9168;51.194;6.840;2023-03-22T14:27:53;13.10;99.90
18083;DHT22;9168;51.194;6.840;2023-03-22T14:30:28;13.10;99.90
18083;DHT22;9168;51.194;6.840;2023-03-22T14:32:58;13.10;99.90
18083;DHT22;9168;51.194;6.840;2023-03-22T14:35:30;13.20;99.90
18083;DHT22;9168;51.194;6.840;2023-03-22T14:38:00;13.20;99.90
18083;DHT22;9168;51.194;6.840;2023-03-22T14:40:30;13.20;99.90
18083;DHT22;9168;51.194;6.840;2023-03-22T14:43:12;13.20;99.90
18083;DHT22;9168;51.194;6.840;2023-03-22T14:45:40;13.20;99.90
18083;DHT22;9168;51.194;6.840;2023-03-22T14:48:13;13.10;99.90
18083;DHT22;9168;51.194;6.840;2023-03-22T14:50:47;13.10;99.90
18083;DHT22;9168;51.194;6.840;2023-03-22T14:53:16;13.10;99.90
18083;DHT22;9168;51.194;6.840;2023-03-22T14:55:44;13.10;99.90
18083;DHT22;9168;51.194;6.840;2023-03-22T14:58:15;13.10;99.90
18083;DHT22;9168;51.194;6.840;2023-03-22T15:00:43;13.10;99.90
18083;DHT22;9168;51.194;6.840;2023-03-22T15:03:17;13.10;99.90
18083;DHT22;9168;51.194;6.840;2023-03-22T15:05:48;13.20;99.90
18083;DHT22;9168;51.194;6.840;2023-03-22T15:08:23;13.10;99.90
18083;DHT22;9168;51.194;6.840;2023-03-22T15:10:52;13.20;99.90
18083;DHT22;9168;51.194;6.840;2023-03-22T15:13:22;13.20;99.90
18083;DHT22;9168;51.194;6.840;2023-03-22T15:15:50;13.20;99.90
18083;DHT22;9168;51.194;6.840;2023-03-22T15:18:21;13.20;99.90
18083;DHT22;9168;51.194;6.840;2023-03-22T15:20:49;13.20;99.90
18083;DHT22;9168;51.194;6.840;2023-03-22T15:23:19;13.30;99.90
18083;DHT22;9168;51.194;6.840;2023-03-22T15:25:47;13.30;99.90
18083;DHT22;9168;51.194;6.840;2023-03-22T15:28:17;13.20;99.90
18083;DHT22;9168;51.194;6.840;2023-03-22T15:30:46;13.20;99.90
18083;DHT22;9168;51.194;6.840;2023-03-22T15:33:21;13.20;99.90
18083;DHT22;9168;51.194;6.840;2023-03-22T15:35:48;13.20;99.90
18083;DHT22;9168;51.194;6.840;2023-03-22T15:38:22;13.30;99.90
18083;DHT22;9168;51.194;6.840;2023-03-22T15:40:51;13.30;99.90
18083;DHT22;9168;51.194;6.840;2023-03-22T15:43:20;13.20;99.90
18083;DHT22;9168;51.194;6.840;2023-03-22T15:46:20;13.20;99.90
18083;DHT22;9168;51.194;6.840;2023-03-22T15:48:54;13.20;99.90
18083;DHT22;9168;51.194;6.840;2023-03-22T15:51:25;13.30;99.90
18083;DHT22;9168;51.194;6.840;2023-03-22T15:54:01;13.30;99.90
18083;DHT22;9168;51.194;6.840;2023-03-22T15:56:30;13.30;99.90
18083;DHT22;9168;51.194;6.840;2023-03-22T15:58:59;13.30;99.90
18083;DHT22;9168;51.194;6.840;2023-03-22T16:01:27;13.30;99.90
18083;DHT22;9168;51.194;6.840;2023-03-22T16:03:58;13.30;99.90
18083;DHT22;9168;51.194;6.840;2023-03-22T16:06:27;13.30;99.90
18083;DHT22;9168;51.194;6.840;2023-03-22T16:08:55;13.30;99.90
18083;DHT22;9168;51.194;6.840;2023-03-22T16:11:25;13.30;99.90
18083;DHT22;9168;51.194;6.840;2023-03-22T16:13:52;13.30;99.90
18083;DHT22;9168;51.194;6.840;2023-03-22T16:16:22;13.30;99.90
18083;DHT22;9168;51.194;6.840;2023-03-22T16:18:49;13.40;99.90
18083;DHT22;9168;51.194;6.840;2023-03-22T16:21:24;13.40;99.90
18083;DHT22;9168;51.194;6.840;2023-03-22T16:23:52;13.30;99.90
18083;DHT22;9168;51.194;6.840;2023-03-22T16:26:19;13.40;99.90